createdAt,value
2023-02-25T00:01:36.261Z,22.83
2023-02-25T00:04:03.893Z,28.10
2023-02-25T00:06:30.910Z,27.60
2023-02-25T00:08:57.923Z,16.55
2023-02-25T00:11:25.755Z,22.35
2023-02-25T00:13:53.321Z,25.20
2023-02-25T00:16:22.068Z,22.95
2023-02-25T00:18:57.040Z,36.92
2023-02-25T00:21:25.022Z,20.40
2023-02-25T00:23:53.463Z,22.27
2023-02-25T00:26:21.537Z,33.00
2023-02-25T00:28:49.359Z,21.40
2023-02-25T00:31:19.385Z,18.10
2023-02-25T00:33:46.530Z,24.30
2023-02-25T00:36:21.192Z,23.17
2023-02-25T00:38:50.394Z,25.85
2023-02-25T00:41:23.219Z,20.60
2023-02-25T00:43:52.766Z,20.67
2023-02-25T00:46:20.940Z,22.95
2023-02-25T00:48:49.213Z,18.00
2023-02-25T00:51:22.416Z,25.23
2023-02-25T00:53:51.034Z,22.63
2023-02-25T00:56:20.106Z,16.65
2023-02-25T00:58:49.632Z,29.65
2023-02-25T01:01:31.330Z,19.35
2023-02-25T01:03:59.274Z,21.25
2023-02-25T01:06:28.827Z,17.83
2023-02-25T01:08:57.561Z,22.17
2023-02-25T01:11:31.275Z,23.17
2023-02-25T01:14:01.348Z,38.67
2023-02-25T01:16:30.516Z,24.02
2023-02-25T01:19:00.223Z,15.43
2023-02-25T01:21:47.304Z,21.33
2023-02-25T01:24:23.237Z,11.63
2023-02-25T01:26:53.550Z,14.93
2023-02-25T01:29:23.368Z,22.73
2023-02-25T01:31:55.114Z,17.33
2023-02-25T01:34:23.515Z,25.25
2023-02-25T01:36:51.280Z,30.52
2023-02-25T01:39:19.965Z,22.88
2023-02-25T01:41:50.811Z,20.05
2023-02-25T01:44:23.820Z,28.48
2023-02-25T01:46:53.796Z,27.63
2023-02-25T01:49:23.776Z,31.58
2023-02-25T01:51:56.593Z,21.67
2023-02-25T01:54:23.763Z,16.40
2023-02-25T01:56:55.753Z,23.75
2023-02-25T01:59:25.186Z,33.95
2023-02-25T02:01:52.268Z,20.98
2023-02-25T02:04:21.156Z,22.88
2023-02-25T02:06:50.251Z,21.80
2023-02-25T02:09:24.255Z,26.00
2023-02-25T02:11:51.358Z,29.40
2023-02-25T02:14:27.261Z,21.88
2023-02-25T02:17:07.695Z,28.63
2023-02-25T02:19:49.772Z,14.85
2023-02-25T02:22:24.093Z,20.52
2023-02-25T02:25:00.181Z,20.75
2023-02-25T02:27:33.011Z,22.90
2023-02-25T02:30:17.909Z,30.05
2023-02-25T02:32:56.793Z,32.45
2023-02-25T02:35:37.264Z,25.98
2023-02-25T02:38:13.171Z,30.02
2023-02-25T02:41:14.607Z,18.40
2023-02-25T02:44:07.217Z,29.70
2023-02-25T02:46:40.968Z,23.05
2023-02-25T02:49:18.720Z,37.15
2023-02-25T02:51:51.793Z,21.45
2023-02-25T02:54:20.918Z,25.73
2023-02-25T02:56:51.549Z,26.02
2023-02-25T02:59:25.921Z,26.25
2023-02-25T03:01:59.753Z,25.67
2023-02-25T03:04:31.833Z,21.33
2023-02-25T03:07:03.326Z,16.33
2023-02-25T03:09:44.853Z,33.30
2023-02-25T03:12:12.101Z,22.05
2023-02-25T03:14:39.310Z,30.08
2023-02-25T03:17:11.036Z,25.10
2023-02-25T03:19:56.825Z,19.90
2023-02-25T03:22:36.353Z,31.35
2023-02-25T03:25:18.667Z,22.10
2023-02-25T03:27:49.673Z,25.95
2023-02-25T03:30:49.691Z,26.13
2023-02-25T03:33:41.213Z,37.35
2023-02-25T03:36:12.983Z,17.80
2023-02-25T03:38:44.939Z,23.25
2023-02-25T03:41:14.927Z,21.05
2023-02-25T03:43:46.716Z,16.45
2023-02-25T03:46:15.182Z,27.23
2023-02-25T03:48:43.727Z,24.23
2023-02-25T03:51:15.230Z,24.10
2023-02-25T03:53:43.355Z,25.23
2023-02-25T03:56:13.470Z,27.80
2023-02-25T03:58:44.153Z,19.02
2023-02-25T04:01:17.283Z,20.00
2023-02-25T04:03:44.565Z,22.70
2023-02-25T04:06:13.221Z,25.75
2023-02-25T04:08:41.266Z,22.17
2023-02-25T04:11:08.333Z,32.13
2023-02-25T04:13:36.345Z,35.63
2023-02-25T04:16:04.744Z,26.67
2023-02-25T04:18:32.316Z,24.38
2023-02-25T04:20:59.337Z,34.88
2023-02-25T04:23:26.491Z,37.08
2023-02-25T04:25:53.473Z,21.52
2023-02-25T04:28:20.503Z,24.38
2023-02-25T04:30:47.726Z,27.75
2023-02-25T04:33:14.953Z,29.30
2023-02-25T04:35:41.969Z,23.55
2023-02-25T04:38:09.387Z,17.75
2023-02-25T04:40:36.616Z,35.25
2023-02-25T04:43:03.784Z,27.35
2023-02-25T04:45:30.770Z,25.02
2023-02-25T04:47:57.964Z,25.83
2023-02-25T04:50:25.420Z,26.83
2023-02-25T04:52:52.572Z,28.52
2023-02-25T04:55:19.939Z,26.95
2023-02-25T04:57:47.103Z,19.45
2023-02-25T05:00:20.669Z,24.17
2023-02-25T05:02:48.138Z,21.60
2023-02-25T05:05:16.020Z,16.85
2023-02-25T05:07:43.408Z,18.95
2023-02-25T05:10:12.804Z,26.55
2023-02-25T05:12:39.921Z,24.20
2023-02-25T05:15:08.598Z,20.63
2023-02-25T05:17:36.176Z,25.92
2023-02-25T05:20:07.217Z,26.55
2023-02-25T05:22:34.774Z,31.73
2023-02-25T05:25:01.759Z,28.27
2023-02-25T05:27:28.757Z,21.70
2023-02-25T05:29:55.988Z,26.65
2023-02-25T05:32:23.262Z,29.73
2023-02-25T05:34:50.315Z,22.33
2023-02-25T05:37:17.387Z,23.58
2023-02-25T05:39:44.458Z,26.50
2023-02-25T05:42:11.597Z,31.38
2023-02-25T05:44:38.662Z,24.77
2023-02-25T05:47:07.499Z,38.65
2023-02-25T05:49:34.545Z,28.50
2023-02-25T05:52:01.623Z,36.85
2023-02-25T05:54:28.608Z,28.80
2023-02-25T05:56:55.607Z,21.45
2023-02-25T05:59:22.590Z,50.97
2023-02-25T06:01:49.618Z,32.97
2023-02-25T06:04:16.747Z,24.17
2023-02-25T06:06:48.984Z,24.83
2023-02-25T06:09:18.790Z,29.42
2023-02-25T06:11:48.281Z,29.55
2023-02-25T06:14:16.072Z,26.17
2023-02-25T06:16:43.199Z,27.20
2023-02-25T06:19:11.521Z,30.35
2023-02-25T06:21:39.033Z,42.50
2023-02-25T06:24:06.599Z,30.45
2023-02-25T06:26:35.281Z,31.40
2023-02-25T06:29:02.329Z,31.40
2023-02-25T06:31:29.395Z,31.40
2023-02-25T06:33:56.496Z,23.20
2023-02-25T06:36:23.878Z,32.80
2023-02-25T06:38:51.161Z,20.98
2023-02-25T06:41:20.905Z,38.15
2023-02-25T06:43:51.957Z,31.63
2023-02-25T06:46:22.107Z,37.22
2023-02-25T06:48:49.323Z,37.60
2023-02-25T06:51:16.762Z,41.13
2023-02-25T06:53:45.387Z,31.40
2023-02-25T06:56:14.298Z,32.55
2023-02-25T06:58:41.985Z,26.92
2023-02-25T07:01:12.072Z,30.05
2023-02-25T07:03:39.676Z,27.00
2023-02-25T07:06:08.846Z,33.20
2023-02-25T07:08:35.892Z,29.25
2023-02-25T07:11:13.434Z,20.55
2023-02-25T07:13:43.270Z,29.20
2023-02-25T07:16:11.824Z,27.92
2023-02-25T07:18:39.775Z,32.88
2023-02-25T07:21:07.547Z,29.67
2023-02-25T07:23:34.720Z,39.72
2023-02-25T07:26:06.022Z,36.25
2023-02-25T07:28:33.365Z,30.83
2023-02-25T07:31:01.770Z,30.38
2023-02-25T07:33:30.035Z,36.58
2023-02-25T07:35:58.158Z,41.58
2023-02-25T07:38:25.174Z,27.17
2023-02-25T07:40:52.196Z,20.70
2023-02-25T07:43:19.220Z,26.33
2023-02-25T07:45:46.294Z,35.53
2023-02-25T07:48:13.320Z,30.90
2023-02-25T07:50:40.444Z,37.08
2023-02-25T07:53:07.467Z,39.75
2023-02-25T07:55:34.538Z,39.83
2023-02-25T07:58:01.698Z,39.22
2023-02-25T08:00:28.750Z,33.38
2023-02-25T08:02:55.819Z,32.47
2023-02-25T08:05:24.098Z,24.67
2023-02-25T08:07:51.194Z,30.25
2023-02-25T08:10:18.362Z,31.98
2023-02-25T08:12:45.371Z,20.50
2023-02-25T08:15:12.392Z,20.48
2023-02-25T08:17:39.436Z,37.05
2023-02-25T08:20:08.720Z,24.88
2023-02-25T08:22:35.807Z,25.65
2023-02-25T08:25:03.303Z,28.65
2023-02-25T08:27:30.871Z,34.47
2023-02-25T08:29:57.983Z,25.15
2023-02-25T08:32:27.348Z,24.73
2023-02-25T08:34:54.725Z,20.05
2023-02-25T08:37:22.555Z,33.75
2023-02-25T08:39:49.673Z,21.95
2023-02-25T08:42:18.909Z,41.25
2023-02-25T08:44:45.936Z,21.92
2023-02-25T08:47:13.097Z,26.92
2023-02-25T08:49:40.447Z,40.20
2023-02-25T08:52:11.842Z,34.80
2023-02-25T08:54:39.481Z,42.78
2023-02-25T08:57:06.525Z,41.97
2023-02-25T08:59:36.323Z,26.30
2023-02-25T09:02:10.074Z,32.95
2023-02-25T09:04:37.787Z,23.83
2023-02-25T09:07:04.814Z,40.97
2023-02-25T09:09:33.507Z,32.60
2023-02-25T09:12:01.488Z,30.85
2023-02-25T09:14:29.036Z,19.73
2023-02-25T09:16:57.355Z,39.65
2023-02-25T09:19:24.375Z,29.90
2023-02-25T09:21:51.416Z,24.33
2023-02-25T09:24:18.845Z,33.47
2023-02-25T09:26:46.804Z,25.35
2023-02-25T09:29:14.280Z,23.25
2023-02-25T09:31:41.460Z,22.20
2023-02-25T09:34:13.482Z,10.88
2023-02-25T09:36:41.133Z,23.60
2023-02-25T09:39:10.062Z,4.90
2023-02-25T09:41:47.267Z,7.25
2023-02-25T09:44:21.449Z,9.75
2023-02-25T09:46:56.365Z,6.38
2023-02-25T09:49:30.637Z,6.35
2023-02-25T09:52:06.918Z,4.80
2023-02-25T09:54:45.949Z,5.30
2023-02-25T09:57:21.475Z,3.08
2023-02-25T09:59:52.180Z,7.47
2023-02-25T10:02:32.822Z,5.10
2023-02-25T10:05:19.147Z,3.90
2023-02-25T10:07:59.018Z,5.47
2023-02-25T10:10:30.498Z,5.78
2023-02-25T10:13:16.492Z,10.38
2023-02-25T10:15:51.996Z,11.32
2023-02-25T10:18:51.742Z,9.60
2023-02-25T10:21:22.056Z,11.85
2023-02-25T10:23:55.483Z,6.05
2023-02-25T10:26:26.268Z,4.88
2023-02-25T10:28:58.795Z,10.77
2023-02-25T10:33:55.309Z,12.77
2023-02-25T10:36:32.131Z,4.18
2023-02-25T10:38:59.993Z,11.07
2023-02-25T10:41:27.602Z,4.32
2023-02-25T10:43:55.644Z,16.65
2023-02-25T10:46:48.984Z,11.75
2023-02-25T10:49:16.513Z,6.68
2023-02-25T10:52:17.481Z,8.82
2023-02-25T10:54:50.159Z,6.40
2023-02-25T10:59:46.383Z,5.13
2023-02-25T11:02:26.358Z,6.72
2023-02-25T11:04:55.190Z,3.50
2023-02-25T11:07:35.710Z,6.80
2023-02-25T11:10:21.059Z,5.65
2023-02-25T11:12:53.670Z,4.22
2023-02-25T11:18:28.614Z,5.50
2023-02-25T11:20:59.806Z,7.00
2023-02-25T11:23:32.411Z,4.20
2023-02-25T11:28:33.307Z,4.75
2023-02-25T11:31:33.341Z,11.27
2023-02-25T11:34:04.908Z,8.50
2023-02-25T11:36:38.166Z,7.13
2023-02-25T11:39:16.732Z,8.13
2023-02-25T11:41:46.257Z,11.07
2023-02-25T11:44:23.907Z,11.90
2023-02-25T11:46:57.126Z,11.52
2023-02-25T11:49:44.973Z,6.07
2023-02-25T11:52:25.934Z,14.45
2023-02-25T11:55:02.181Z,9.98
2023-02-25T11:57:58.591Z,5.97
2023-02-25T12:00:52.316Z,11.00
2023-02-25T12:03:31.663Z,7.88
2023-02-25T12:06:17.805Z,11.88
2023-02-25T12:09:11.916Z,10.88
2023-02-25T12:11:58.321Z,3.05
2023-02-25T12:14:59.099Z,5.65
2023-02-25T12:17:51.795Z,6.57
2023-02-25T12:20:40.752Z,4.57
2023-02-25T12:23:29.046Z,6.35
2023-02-25T12:26:08.636Z,4.30
2023-02-25T12:28:53.340Z,6.25
2023-02-25T12:31:38.996Z,9.38
2023-02-25T12:34:24.365Z,8.30
2023-02-25T12:37:23.166Z,10.60
2023-02-25T12:40:04.354Z,36.13
2023-02-25T12:43:09.212Z,8.10
2023-02-25T12:46:15.077Z,8.77
2023-02-25T12:48:48.207Z,7.88
2023-02-25T12:51:24.145Z,8.02
2023-02-25T12:54:20.370Z,12.77
2023-02-25T12:57:02.880Z,14.30
2023-02-25T13:00:15.963Z,4.63
2023-02-25T13:03:06.698Z,10.52
2023-02-25T13:05:36.582Z,7.00
2023-02-25T13:08:32.565Z,8.52
2023-02-25T13:11:11.917Z,7.00
2023-02-25T13:14:00.821Z,14.05
2023-02-25T13:16:49.111Z,6.85
2023-02-25T13:19:26.603Z,6.93
2023-02-25T13:22:15.474Z,8.80
2023-02-25T13:25:08.191Z,12.10
2023-02-25T13:27:59.117Z,11.05
2023-02-25T13:30:40.040Z,9.77
2023-02-25T13:33:24.008Z,7.47
2023-02-25T13:36:13.412Z,18.88
2023-02-25T13:39:25.213Z,24.10
2023-02-25T13:42:21.329Z,34.28
2023-02-25T13:45:11.793Z,5.57
2023-02-25T13:47:48.279Z,13.25
2023-02-25T13:50:44.709Z,3.50
2023-02-25T13:53:48.268Z,10.27
2023-02-25T13:56:26.515Z,7.57
2023-02-25T13:59:34.976Z,8.45
2023-02-25T14:02:31.738Z,16.75
2023-02-25T14:05:14.128Z,7.05
2023-02-25T14:08:11.597Z,3.55
2023-02-25T14:10:48.227Z,11.77
2023-02-25T14:14:04.425Z,9.85
2023-02-25T14:16:53.842Z,7.72
2023-02-25T14:19:37.111Z,11.25
2023-02-25T14:22:29.160Z,9.05
2023-02-25T14:25:18.431Z,13.80
2023-02-25T14:27:54.890Z,7.43
2023-02-25T14:30:52.587Z,4.35
2023-02-25T14:33:34.896Z,10.05
2023-02-25T14:36:29.234Z,9.88
2023-02-25T14:39:05.902Z,9.48
2023-02-25T14:41:53.954Z,8.38
2023-02-25T14:44:38.332Z,4.85
2023-02-25T14:47:20.419Z,5.88
2023-02-25T14:49:57.721Z,8.65
2023-02-25T14:53:03.160Z,3.08
2023-02-25T14:55:37.842Z,4.80
2023-02-25T14:58:26.543Z,4.65
2023-02-25T15:01:22.959Z,7.43
2023-02-25T15:03:53.162Z,6.35
2023-02-25T15:06:48.819Z,5.78
2023-02-25T15:10:12.971Z,3.72
2023-02-25T15:12:49.839Z,3.10
2023-02-25T15:15:54.042Z,5.47
2023-02-25T15:18:20.999Z,6.63
2023-02-25T15:20:48.666Z,2.65
2023-02-25T15:23:19.572Z,23.05
2023-02-25T15:26:11.609Z,1.55
2023-02-25T15:28:40.831Z,7.80
2023-02-25T15:31:30.532Z,6.07
2023-02-25T15:34:22.749Z,5.35
2023-02-25T15:36:51.828Z,5.30
2023-02-25T15:39:41.629Z,8.80
2023-02-25T15:42:12.020Z,2.92
2023-02-25T15:44:41.233Z,3.63
2023-02-25T15:47:26.381Z,2.55
2023-02-25T15:49:55.777Z,2.00
2023-02-25T15:52:58.857Z,6.63
2023-02-25T15:58:02.176Z,1.90
2023-02-25T16:00:47.419Z,3.95
2023-02-25T16:03:35.753Z,12.55
2023-02-25T16:06:53.692Z,4.50
2023-02-25T16:09:21.502Z,6.30
2023-02-25T16:11:53.508Z,2.33
2023-02-25T16:14:27.330Z,3.83
2023-02-25T16:17:13.870Z,9.85
2023-02-25T16:19:42.054Z,7.38
2023-02-25T16:22:19.654Z,5.80
2023-02-25T16:24:58.522Z,2.63
2023-02-25T16:27:37.569Z,6.70
2023-02-25T16:30:14.845Z,3.97
2023-02-25T16:33:04.878Z,4.68
2023-02-25T16:35:53.329Z,5.32
2023-02-25T16:38:45.283Z,3.70
2023-02-25T16:41:14.406Z,7.00
2023-02-25T16:43:43.861Z,7.43
2023-02-25T16:46:17.149Z,2.97
2023-02-25T16:49:07.936Z,7.22
2023-02-25T16:51:41.298Z,4.40
2023-02-25T16:54:17.180Z,4.07
2023-02-25T16:56:46.462Z,4.22
2023-02-25T16:59:13.484Z,6.18
2023-02-25T17:02:08.870Z,6.10
2023-02-25T17:04:37.196Z,3.22
2023-02-25T17:07:16.885Z,4.47
2023-02-25T17:09:46.396Z,6.40
2023-02-25T17:12:21.759Z,3.17
2023-02-25T17:14:50.796Z,3.35
2023-02-25T17:17:24.075Z,2.95
2023-02-25T17:19:51.930Z,5.20
2023-02-25T17:22:22.498Z,7.30
2023-02-25T17:24:52.636Z,9.30
2023-02-25T17:27:21.286Z,11.50
2023-02-25T17:29:49.118Z,9.55
2023-02-25T17:32:29.245Z,5.18
2023-02-25T17:35:01.720Z,4.13
2023-02-25T17:39:59.070Z,6.10
2023-02-25T17:42:41.553Z,4.80
2023-02-25T17:45:40.922Z,4.63
2023-02-25T17:48:22.003Z,4.75
2023-02-25T17:50:59.402Z,5.80
2023-02-25T17:53:33.631Z,7.85
2023-02-25T17:56:25.350Z,6.43
2023-02-25T17:58:57.932Z,9.52
2023-02-25T18:01:29.235Z,5.03
2023-02-25T18:03:59.867Z,5.40
2023-02-25T18:06:33.562Z,8.73
2023-02-25T18:09:02.719Z,5.70
2023-02-25T18:11:38.890Z,7.70
2023-02-25T18:14:27.689Z,9.82
2023-02-25T18:16:55.584Z,3.95
2023-02-25T18:19:25.542Z,8.05
2023-02-25T18:21:53.628Z,11.48
2023-02-25T18:24:23.546Z,7.93
2023-02-25T18:27:06.728Z,6.22
2023-02-25T18:29:34.432Z,11.45
2023-02-25T18:32:01.615Z,7.00
2023-02-25T18:34:28.757Z,5.15
2023-02-25T18:36:55.860Z,9.75
2023-02-25T18:39:25.983Z,8.40
2023-02-25T18:41:53.161Z,9.10
2023-02-25T18:44:20.381Z,22.70
2023-02-25T18:46:47.587Z,9.80
2023-02-25T18:49:14.723Z,4.90
2023-02-25T18:51:42.089Z,7.10
2023-02-25T18:54:16.207Z,13.10
2023-02-25T18:56:43.702Z,7.65
2023-02-25T18:59:10.991Z,6.72
2023-02-25T19:01:38.730Z,8.52
2023-02-25T19:04:05.862Z,6.95
2023-02-25T19:06:33.977Z,8.38
2023-02-25T19:09:01.189Z,7.15
2023-02-25T19:11:33.657Z,6.80
2023-02-25T19:16:28.192Z,8.02
2023-02-25T19:18:56.214Z,12.35
2023-02-25T19:21:23.746Z,15.85
2023-02-25T19:23:51.711Z,10.02
2023-02-25T19:26:22.086Z,6.95
2023-02-25T19:28:49.288Z,5.85
2023-02-25T19:31:17.786Z,6.13
2023-02-25T19:33:45.915Z,10.38
2023-02-25T19:36:13.274Z,4.20
2023-02-25T19:38:40.314Z,5.55
2023-02-25T19:41:07.536Z,6.15
2023-02-25T19:43:34.847Z,3.40
2023-02-25T19:46:02.483Z,3.85
2023-02-25T19:48:29.556Z,9.50
2023-02-25T19:50:56.543Z,13.45
2023-02-25T19:53:23.885Z,7.03
2023-02-25T19:55:56.237Z,11.65
2023-02-25T19:58:23.492Z,13.75
2023-02-25T20:00:50.531Z,7.97
2023-02-25T20:03:17.615Z,10.13
2023-02-25T20:05:44.729Z,6.45
2023-02-25T20:08:11.997Z,8.13
2023-02-25T20:10:41.838Z,7.85
2023-02-25T20:13:08.847Z,11.07
2023-02-25T20:15:35.899Z,13.02
2023-02-25T20:18:03.488Z,11.18
2023-02-25T20:20:30.976Z,8.77
2023-02-25T20:22:58.071Z,8.38
2023-02-25T20:25:25.225Z,3.47
2023-02-25T20:27:52.398Z,7.13
2023-02-25T20:30:19.495Z,6.80
2023-02-25T20:32:46.855Z,9.30
2023-02-25T20:35:17.202Z,6.35
2023-02-25T20:37:53.993Z,7.03
2023-02-25T20:40:21.223Z,7.57
2023-02-25T20:42:48.388Z,7.72
2023-02-25T20:45:15.816Z,7.30
2023-02-25T20:47:43.221Z,5.75
2023-02-25T20:50:14.537Z,12.07
2023-02-25T20:52:42.676Z,5.88
2023-02-25T20:55:10.485Z,10.60
2023-02-25T20:57:37.616Z,9.48
2023-02-25T21:00:08.894Z,7.82
2023-02-25T21:02:36.124Z,4.63
2023-02-25T21:05:03.485Z,9.25
2023-02-25T21:07:30.560Z,14.73
2023-02-25T21:09:57.729Z,11.07
2023-02-25T21:12:24.909Z,9.20
2023-02-25T21:14:52.343Z,5.65
2023-02-25T21:17:19.571Z,11.55
2023-02-25T21:19:46.728Z,9.80
2023-02-25T21:22:14.040Z,9.77
2023-02-25T21:24:41.054Z,8.93
2023-02-25T21:27:08.075Z,14.48
2023-02-25T21:29:35.062Z,16.98
2023-02-25T21:32:02.078Z,13.52
2023-02-25T21:34:29.246Z,19.40
2023-02-25T21:36:58.364Z,13.27
2023-02-25T21:39:25.997Z,13.18
2023-02-25T21:41:53.289Z,12.90
2023-02-25T21:44:20.449Z,13.98
2023-02-25T21:46:47.785Z,12.65
2023-02-25T21:49:14.929Z,11.95
2023-02-25T21:51:42.068Z,21.02
2023-02-25T21:54:09.848Z,22.70
2023-02-25T21:56:36.913Z,19.30
2023-02-25T21:59:05.494Z,16.98
2023-02-25T22:01:35.319Z,12.18
2023-02-25T22:04:03.451Z,12.68
2023-02-25T22:06:31.099Z,12.13
2023-02-25T22:08:58.556Z,13.20
2023-02-25T22:11:31.515Z,10.40
2023-02-25T22:14:00.530Z,16.42
2023-02-25T22:16:28.058Z,12.88
2023-02-25T22:18:56.409Z,11.07
2023-02-25T22:21:28.946Z,12.02
2023-02-25T22:23:58.901Z,8.77
2023-02-25T22:26:31.829Z,15.65
2023-02-25T22:29:01.755Z,14.13
2023-02-25T22:31:29.201Z,14.85
2023-02-25T22:33:57.246Z,12.35
2023-02-25T22:36:25.258Z,19.75
2023-02-25T22:38:56.390Z,15.48
2023-02-25T22:41:29.152Z,17.83
2023-02-25T22:43:59.359Z,8.52
2023-02-25T22:46:29.601Z,17.38
2023-02-25T22:48:56.980Z,18.48
2023-02-25T22:51:44.624Z,10.57
2023-02-25T22:54:13.533Z,21.80
2023-02-25T22:56:41.131Z,13.00
2023-02-25T22:59:08.363Z,15.20
2023-02-25T23:01:35.907Z,7.70
2023-02-25T23:04:03.166Z,6.43
2023-02-25T23:06:42.909Z,9.27
2023-02-25T23:09:13.150Z,8.55
2023-02-25T23:11:42.433Z,13.73
2023-02-25T23:14:09.803Z,16.45
2023-02-25T23:16:40.781Z,11.65
2023-02-25T23:19:16.471Z,9.48
2023-02-25T23:21:44.519Z,10.30
2023-02-25T23:24:18.446Z,8.45
2023-02-25T23:26:47.523Z,7.38
2023-02-25T23:29:14.913Z,12.23
2023-02-25T23:31:44.955Z,10.85
2023-02-25T23:34:16.749Z,8.57
2023-02-25T23:36:45.046Z,9.25
2023-02-25T23:39:13.793Z,4.25
2023-02-25T23:41:41.400Z,12.38
2023-02-25T23:44:09.457Z,12.50
2023-02-25T23:46:37.296Z,10.70
2023-02-25T23:49:06.532Z,5.35
2023-02-25T23:51:34.416Z,11.60
2023-02-25T23:54:05.689Z,5.60
2023-02-25T23:56:34.292Z,6.32
2023-02-25T23:59:02.866Z,15.43
